createdAt,value
2018-12-25T01:39:28.515Z,11.43
2018-12-25T01:40:07.708Z,9.73
2018-12-25T01:40:47.330Z,12.58
2018-12-25T01:41:25.983Z,14.80
2018-12-25T01:42:05.533Z,17.42
2018-12-25T01:42:44.599Z,24.72
2018-12-25T01:43:24.155Z,17.77
2018-12-25T01:44:03.046Z,15.83
2018-12-25T01:44:41.993Z,19.70
2018-12-25T01:45:21.386Z,14.45
2018-12-25T01:46:00.054Z,16.82
2018-12-25T01:46:39.280Z,20.07
2018-12-25T01:47:18.757Z,17.20
2018-12-25T01:47:57.938Z,19.40
2018-12-25T01:48:37.240Z,24.23
2018-12-25T01:49:16.328Z,20.05
2018-12-25T01:49:56.736Z,21.62
2018-12-25T01:50:36.177Z,21.40
2018-12-25T01:51:15.238Z,17.52
2018-12-25T01:51:53.949Z,19.37
2018-12-25T01:52:33.406Z,17.65
2018-12-25T01:53:12.014Z,13.30
2018-12-25T01:53:50.855Z,13.28
2018-12-25T01:54:29.582Z,16.87
2018-12-25T01:55:09.147Z,16.57
2018-12-25T01:55:48.100Z,20.00
2018-12-25T01:56:26.711Z,16.37
2018-12-25T01:57:05.896Z,15.25
2018-12-25T01:57:45.239Z,15.32
2018-12-25T01:58:26.992Z,20.05
2018-12-25T01:59:05.736Z,16.40
2018-12-25T01:59:44.541Z,13.75
2018-12-25T02:00:23.178Z,13.35
2018-12-25T02:01:01.899Z,17.95
2018-12-25T02:01:41.098Z,12.15
2018-12-25T02:02:20.441Z,16.17
2018-12-25T02:02:59.805Z,12.18
2018-12-25T02:03:38.933Z,11.35
2018-12-25T02:04:18.268Z,11.03
2018-12-25T02:04:56.986Z,13.25
2018-12-25T02:05:36.235Z,11.70
2018-12-25T02:06:15.909Z,11.10
2018-12-25T02:06:55.554Z,10.28
2018-12-25T02:07:34.217Z,13.85
2018-12-25T02:08:12.929Z,12.75
2018-12-25T02:08:51.558Z,10.43
2018-12-25T02:09:30.502Z,10.28
2018-12-25T02:10:09.306Z,13.80
2018-12-25T02:10:48.535Z,12.23
2018-12-25T02:11:27.865Z,15.20
2018-12-25T02:12:07.051Z,11.08
2018-12-25T02:12:45.829Z,12.18
2018-12-25T02:13:24.519Z,10.72
2018-12-25T02:14:03.415Z,11.73
2018-12-25T02:14:42.153Z,12.25
2018-12-25T02:15:20.983Z,16.85
2018-12-25T02:16:00.307Z,10.88
2018-12-25T02:16:39.151Z,10.90
2018-12-25T02:17:19.109Z,9.83
2018-12-25T02:17:58.171Z,11.20
2018-12-25T02:18:37.715Z,9.20
2018-12-25T02:19:16.397Z,9.40
2018-12-25T02:19:55.568Z,14.33
2018-12-25T02:20:34.265Z,11.65
2018-12-25T02:21:12.999Z,16.42
2018-12-25T02:21:51.976Z,9.33
2018-12-25T02:22:31.077Z,7.87
2018-12-25T02:23:10.432Z,10.65
2018-12-25T02:23:49.658Z,12.05
2018-12-25T02:24:32.099Z,12.68
2018-12-25T02:25:11.454Z,10.75
2018-12-25T02:25:50.355Z,9.10
2018-12-25T02:26:29.077Z,15.75
2018-12-25T02:27:08.417Z,11.88
2018-12-25T02:27:48.947Z,9.10
2018-12-25T02:28:28.172Z,11.08
2018-12-25T02:29:07.426Z,9.95
2018-12-25T02:29:46.030Z,9.00
2018-12-25T02:30:24.729Z,12.63
2018-12-25T02:31:03.421Z,10.63
2018-12-25T02:31:42.645Z,11.43
2018-12-25T02:32:21.952Z,9.70
2018-12-25T02:33:01.193Z,9.50
2018-12-25T02:33:40.585Z,12.90
2018-12-25T02:34:19.906Z,10.25
2018-12-25T02:34:58.754Z,9.80
2018-12-25T02:35:37.933Z,8.88
2018-12-25T02:36:16.554Z,13.40
2018-12-25T02:36:55.310Z,10.35
2018-12-25T02:37:33.963Z,8.40
2018-12-25T02:38:12.714Z,8.68
2018-12-25T02:38:51.836Z,10.50
2018-12-25T02:39:31.170Z,9.03
2018-12-25T02:40:10.323Z,11.30
2018-12-25T02:40:48.954Z,9.00
2018-12-25T02:41:27.743Z,10.40
2018-12-25T02:42:06.772Z,8.90
2018-12-25T02:42:46.215Z,11.12
2018-12-25T02:43:25.723Z,8.75
2018-12-25T02:44:04.688Z,11.33
2018-12-25T02:44:43.774Z,10.70
2018-12-25T02:45:22.873Z,9.73
2018-12-25T02:46:01.775Z,8.88
2018-12-25T02:46:41.324Z,9.20
2018-12-25T02:47:20.095Z,9.48
2018-12-25T02:47:58.779Z,8.70
2018-12-25T02:48:37.450Z,11.80
2018-12-25T02:49:18.326Z,8.50
2018-12-25T02:49:56.210Z,8.75
2018-12-25T02:50:34.826Z,11.33
2018-12-25T02:51:13.863Z,9.48
2018-12-25T02:51:52.994Z,9.58
2018-12-25T02:52:32.350Z,9.45
2018-12-25T02:53:11.884Z,12.47
2018-12-25T02:53:51.051Z,10.18
2018-12-25T02:54:30.379Z,8.58
2018-12-25T02:55:09.147Z,8.95
2018-12-25T02:55:47.858Z,9.43
2018-12-25T02:56:26.588Z,11.18
2018-12-25T02:57:05.457Z,10.82
2018-12-25T02:57:44.689Z,8.80
2018-12-25T02:58:23.291Z,8.53
2018-12-25T02:59:01.985Z,8.55
2018-12-25T02:59:41.427Z,11.33
2018-12-25T03:00:20.941Z,8.90
2018-12-25T03:00:59.590Z,9.25
2018-12-25T03:01:38.294Z,10.05
2018-12-25T03:02:16.990Z,10.15
2018-12-25T03:02:55.714Z,8.83
2018-12-25T03:03:38.976Z,11.75
2018-12-25T03:04:17.758Z,12.58
2018-12-25T03:04:57.372Z,9.83
2018-12-25T03:05:36.359Z,12.30
2018-12-25T03:06:15.103Z,9.75
2018-12-25T03:06:56.030Z,8.55
2018-12-25T03:07:35.300Z,13.18
2018-12-25T03:08:14.698Z,10.68
2018-12-25T03:08:54.109Z,9.13
2018-12-25T03:09:33.313Z,11.85
2018-12-25T03:10:12.558Z,9.75
2018-12-25T03:10:51.849Z,9.20
2018-12-25T03:11:30.485Z,8.63
2018-12-25T03:12:09.266Z,9.65
2018-12-25T03:12:47.886Z,9.25
2018-12-25T03:13:26.533Z,8.60
2018-12-25T03:14:05.753Z,9.20
2018-12-25T03:14:45.247Z,9.20
2018-12-25T03:15:24.447Z,9.88
2018-12-25T03:16:03.111Z,10.40
2018-12-25T03:16:42.646Z,9.03
2018-12-25T03:17:21.316Z,9.33
2018-12-25T03:17:59.889Z,8.45
2018-12-25T03:18:38.627Z,8.37
2018-12-25T03:19:17.325Z,9.48
2018-12-25T03:19:59.950Z,8.25
2018-12-25T03:20:36.866Z,8.83
2018-12-25T03:21:16.055Z,8.65
2018-12-25T03:21:55.578Z,9.23
2018-12-25T03:22:34.730Z,8.85
2018-12-25T03:23:13.810Z,9.10
2018-12-25T03:23:52.438Z,9.40
2018-12-25T03:24:31.856Z,10.00
2018-12-25T03:25:10.623Z,10.38
2018-12-25T03:25:49.339Z,8.40
2018-12-25T03:26:28.023Z,8.20
2018-12-25T03:27:07.085Z,8.90
2018-12-25T03:27:46.162Z,9.48
2018-12-25T03:28:25.087Z,9.93
2018-12-25T03:29:04.566Z,8.33
2018-12-25T03:29:43.268Z,9.13
2018-12-25T03:30:22.401Z,9.55
2018-12-25T03:31:01.200Z,8.83
2018-12-25T03:31:39.959Z,8.03
2018-12-25T03:32:18.656Z,9.95
2018-12-25T03:32:57.711Z,10.35
2018-12-25T03:33:36.668Z,9.55
2018-12-25T03:34:18.874Z,8.35
2018-12-25T03:35:01.312Z,8.83
2018-12-25T03:35:40.088Z,9.68
2018-12-25T03:36:19.332Z,9.08
2018-12-25T03:36:58.366Z,11.08
2018-12-25T03:37:37.597Z,10.85
2018-12-25T03:38:16.775Z,9.00
2018-12-25T03:38:56.028Z,9.80
2018-12-25T03:39:35.471Z,9.35
2018-12-25T03:40:15.023Z,10.18
2018-12-25T03:40:54.530Z,10.13
2018-12-25T03:41:33.903Z,9.38
2018-12-25T03:42:12.977Z,9.50
2018-12-25T03:42:51.769Z,9.05
2018-12-25T03:43:30.489Z,10.25
2018-12-25T03:44:09.187Z,8.60
2018-12-25T03:44:50.710Z,10.18
2018-12-25T03:45:29.363Z,11.18
2018-12-25T03:46:08.070Z,8.80
2018-12-25T03:46:46.979Z,12.37
2018-12-25T03:47:26.076Z,9.60
2018-12-25T03:48:05.392Z,8.30
2018-12-25T03:48:44.642Z,8.35
2018-12-25T03:49:23.933Z,11.00
2018-12-25T03:50:10.664Z,8.98
2018-12-25T03:50:43.445Z,8.33
2018-12-25T03:51:22.242Z,8.83
2018-12-25T03:52:00.989Z,7.87
2018-12-25T03:52:39.956Z,8.90
2018-12-25T03:53:18.573Z,8.70
2018-12-25T03:53:57.233Z,9.30
2018-12-25T03:54:36.163Z,8.20
2018-12-25T03:55:15.870Z,9.35
2018-12-25T03:55:55.537Z,8.23
2018-12-25T03:56:34.616Z,9.40
2018-12-25T03:57:13.232Z,9.20
2018-12-25T03:57:51.939Z,8.50
2018-12-25T03:58:30.635Z,8.30
2018-12-25T03:59:09.810Z,12.47
2018-12-25T03:59:48.676Z,8.90
2018-12-25T04:00:29.178Z,8.03
2018-12-25T04:01:08.023Z,11.15
2018-12-25T04:01:47.576Z,8.53
2018-12-25T04:02:29.364Z,8.53
2018-12-25T04:03:08.796Z,10.30
2018-12-25T04:03:50.790Z,7.40
2018-12-25T04:04:30.005Z,8.95
2018-12-25T04:05:09.321Z,7.28
2018-12-25T04:05:48.553Z,9.63
2018-12-25T04:06:27.682Z,8.98
2018-12-25T04:07:06.975Z,8.20
2018-12-25T04:07:46.269Z,8.35
2018-12-25T04:08:24.893Z,8.00
2018-12-25T04:09:03.578Z,7.73
2018-12-25T04:09:42.318Z,7.70
2018-12-25T04:10:21.234Z,8.43
2018-12-25T04:11:00.198Z,8.60
2018-12-25T04:11:39.454Z,11.10
2018-12-25T04:12:18.474Z,7.95
2018-12-25T04:12:57.413Z,9.27
2018-12-25T04:13:36.758Z,10.23
2018-12-25T04:14:15.483Z,7.50
2018-12-25T04:14:54.883Z,9.05
2018-12-25T04:15:33.545Z,8.07
2018-12-25T04:16:12.155Z,9.38
2018-12-25T04:16:50.977Z,7.97
2018-12-25T04:17:32.888Z,7.50
2018-12-25T04:18:11.592Z,8.93
2018-12-25T04:18:50.889Z,9.20
2018-12-25T04:19:30.221Z,10.20
2018-12-25T04:20:08.872Z,7.72
2018-12-25T04:20:48.263Z,7.60
2018-12-25T04:21:27.514Z,7.85
2018-12-25T04:22:06.844Z,7.60
2018-12-25T04:22:45.575Z,7.87
2018-12-25T04:23:24.334Z,8.10
2018-12-25T04:24:03.095Z,7.93
2018-12-25T04:24:43.634Z,8.23
2018-12-25T04:25:22.893Z,10.45
2018-12-25T04:26:01.556Z,7.85
2018-12-25T04:26:40.703Z,7.53
2018-12-25T04:27:20.223Z,7.67
2018-12-25T04:27:59.562Z,10.15
2018-12-25T04:28:39.186Z,7.80
2018-12-25T04:29:18.027Z,8.67
2018-12-25T04:29:56.740Z,8.30
2018-12-25T04:30:35.806Z,7.23
2018-12-25T04:31:18.076Z,6.77
2018-12-25T04:31:56.972Z,8.70
2018-12-25T04:32:35.842Z,8.03
2018-12-25T04:33:14.434Z,8.50
2018-12-25T04:33:53.272Z,8.53
2018-12-25T04:34:33.702Z,8.37
2018-12-25T04:35:12.575Z,8.20
2018-12-25T04:35:51.477Z,10.50
2018-12-25T04:36:30.506Z,7.90
2018-12-25T04:37:09.697Z,7.40
2018-12-25T04:37:48.937Z,7.45
2018-12-25T04:38:27.712Z,7.70
2018-12-25T04:39:08.281Z,8.57
2018-12-25T04:39:47.772Z,7.50
2018-12-25T04:40:27.166Z,8.10
2018-12-25T04:41:06.666Z,7.93
2018-12-25T04:41:45.550Z,7.73
2018-12-25T04:42:24.479Z,7.20
2018-12-25T04:43:03.297Z,8.10
2018-12-25T04:43:42.416Z,9.77
2018-12-25T04:44:21.762Z,8.53
2018-12-25T04:45:00.789Z,7.70
2018-12-25T04:45:40.151Z,8.83
2018-12-25T04:46:19.368Z,6.90
2018-12-25T04:46:58.451Z,7.63
2018-12-25T04:47:37.194Z,7.07
2018-12-25T04:48:15.821Z,6.97
2018-12-25T04:48:54.511Z,7.47
2018-12-25T04:49:33.287Z,7.17
2018-12-25T04:50:12.452Z,7.83
2018-12-25T04:50:51.493Z,7.07
2018-12-25T04:51:30.202Z,7.13
2018-12-25T04:52:09.590Z,6.93
2018-12-25T04:52:48.339Z,14.00
2018-12-25T04:53:27.811Z,7.03
2018-12-25T04:54:07.053Z,6.97
2018-12-25T04:54:45.763Z,7.08
2018-12-25T04:55:24.768Z,8.50
2018-12-25T04:56:03.767Z,8.05
2018-12-25T04:56:43.206Z,6.90
2018-12-25T04:57:22.426Z,8.13
2018-12-25T04:58:01.848Z,8.17
2018-12-25T04:58:41.200Z,8.53
2018-12-25T04:59:20.533Z,6.67
2018-12-25T04:59:59.218Z,7.37
2018-12-25T05:00:38.171Z,7.77
2018-12-25T05:01:17.009Z,6.87
2018-12-25T05:01:55.767Z,6.60
2018-12-25T05:02:34.796Z,6.93
2018-12-25T05:03:13.806Z,7.22
2018-12-25T05:03:52.856Z,7.23
2018-12-25T05:04:31.599Z,7.53
2018-12-25T05:05:10.285Z,7.30
2018-12-25T05:05:48.990Z,7.57
2018-12-25T05:06:28.552Z,9.40
2018-12-25T05:07:07.349Z,8.37
2018-12-25T05:07:46.130Z,8.83
2018-12-25T05:08:25.250Z,11.50
2018-12-25T05:09:04.795Z,6.57
2018-12-25T05:09:43.546Z,7.70
2018-12-25T05:10:22.709Z,7.47
2018-12-25T05:11:01.288Z,7.40
2018-12-25T05:11:40.568Z,7.70
2018-12-25T05:12:19.386Z,7.17
2018-12-25T05:12:58.462Z,7.90
2018-12-25T05:13:37.367Z,9.50
2018-12-25T05:14:16.720Z,7.07
2018-12-25T05:14:55.802Z,10.93
2018-12-25T05:15:34.947Z,7.53
2018-12-25T05:16:18.182Z,11.90
2018-12-25T05:16:56.839Z,9.30
2018-12-25T05:17:35.538Z,6.47
2018-12-25T05:18:15.140Z,7.10
2018-12-25T05:18:54.553Z,7.40
2018-12-25T05:19:33.817Z,7.90
2018-12-25T05:20:13.214Z,9.17
2018-12-25T05:20:53.554Z,7.87
2018-12-25T05:21:33.166Z,7.37
2018-12-25T05:22:12.381Z,12.03
2018-12-25T05:22:51.081Z,8.10
2018-12-25T05:23:29.651Z,6.63
2018-12-25T05:24:08.377Z,7.10
2018-12-25T05:24:47.051Z,7.20
2018-12-25T05:25:26.053Z,11.63
2018-12-25T05:26:04.989Z,8.57
2018-12-25T05:26:45.240Z,6.80
2018-12-25T05:27:24.243Z,6.47
2018-12-25T05:28:03.378Z,6.27
2018-12-25T05:28:42.026Z,8.63
2018-12-25T05:29:20.731Z,7.03
2018-12-25T05:29:59.439Z,7.80
2018-12-25T05:30:38.136Z,6.90
2018-12-25T05:31:16.804Z,6.80
2018-12-25T05:31:56.177Z,7.23
2018-12-25T05:32:35.342Z,9.73
2018-12-25T05:33:14.051Z,6.83
2018-12-25T05:33:52.994Z,7.03
2018-12-25T05:34:32.395Z,6.03
2018-12-25T05:35:11.147Z,10.13
2018-12-25T05:35:50.190Z,7.90
2018-12-25T05:36:28.870Z,6.70
2018-12-25T05:37:07.520Z,7.03
2018-12-25T05:37:46.575Z,7.10
2018-12-25T05:38:25.908Z,6.13
2018-12-25T05:39:05.545Z,7.03
2018-12-25T05:39:45.011Z,7.80
2018-12-25T05:40:24.800Z,6.87
2018-12-25T05:41:03.509Z,7.63
2018-12-25T05:41:42.094Z,6.40
2018-12-25T05:42:20.775Z,6.87
2018-12-25T05:42:59.451Z,6.90
2018-12-25T05:43:38.148Z,7.47
2018-12-25T05:44:17.320Z,7.40
2018-12-25T05:44:56.624Z,6.83
2018-12-25T05:45:35.304Z,7.30
2018-12-25T05:46:14.435Z,9.93
2018-12-25T05:46:53.901Z,7.10
2018-12-25T05:47:33.403Z,6.83
2018-12-25T05:48:12.417Z,6.70
2018-12-25T05:48:51.615Z,7.17
2018-12-25T05:49:32.054Z,6.93
2018-12-25T05:50:10.827Z,10.23
2018-12-25T05:50:49.631Z,6.30
2018-12-25T05:51:28.619Z,8.27
2018-12-25T05:52:07.630Z,6.83
2018-12-25T05:52:46.734Z,10.80
2018-12-25T05:53:26.150Z,7.57
2018-12-25T05:54:05.481Z,7.47
2018-12-25T05:54:44.809Z,6.50
2018-12-25T05:55:24.055Z,7.03
2018-12-25T05:56:02.758Z,6.67
2018-12-25T05:56:43.154Z,7.37
2018-12-25T05:57:21.902Z,6.80
2018-12-25T05:58:01.084Z,6.43
2018-12-25T05:58:39.914Z,6.80
2018-12-25T05:59:18.874Z,6.97
2018-12-25T05:59:58.138Z,10.40
2018-12-25T06:00:37.143Z,6.63
2018-12-25T06:01:16.310Z,6.83
2018-12-25T06:01:55.717Z,6.87
2018-12-25T06:02:34.794Z,7.57
2018-12-25T06:03:13.417Z,6.90
2018-12-25T06:03:52.130Z,6.63
2018-12-25T06:04:30.733Z,6.43
2018-12-25T06:05:09.607Z,6.87
2018-12-25T06:05:48.824Z,7.93
2018-12-25T06:06:27.572Z,8.40
2018-12-25T06:07:06.822Z,7.77
2018-12-25T06:07:46.133Z,7.40
2018-12-25T06:08:25.272Z,8.20
2018-12-25T06:09:05.383Z,7.77
2018-12-25T06:09:44.638Z,7.07
2018-12-25T06:10:23.278Z,7.50
2018-12-25T06:11:01.989Z,7.43
2018-12-25T06:11:40.708Z,6.47
2018-12-25T06:12:19.954Z,7.13
2018-12-25T06:12:59.164Z,6.67
2018-12-25T06:13:38.582Z,6.93
2018-12-25T06:14:17.221Z,7.53
2018-12-25T06:14:56.431Z,6.57
2018-12-25T06:15:37.044Z,7.17
2018-12-25T06:16:16.395Z,7.03
2018-12-25T06:16:55.070Z,7.17
2018-12-25T06:17:33.867Z,6.60
2018-12-25T06:18:12.648Z,7.00
2018-12-25T06:18:51.557Z,9.10
2018-12-25T06:19:30.538Z,6.67
2018-12-25T06:20:09.699Z,6.90
2018-12-25T06:20:55.093Z,6.40
2018-12-25T06:21:29.626Z,6.67
2018-12-25T06:22:08.848Z,7.03
2018-12-25T06:22:47.786Z,7.00
2018-12-25T06:23:27.047Z,7.30
2018-12-25T06:24:11.449Z,6.57
2018-12-25T06:24:50.773Z,7.13
2018-12-25T06:25:30.292Z,6.97
2018-12-25T06:26:13.563Z,7.73
2018-12-25T06:26:52.556Z,6.83
2018-12-25T06:27:34.247Z,7.20
2018-12-25T06:28:12.952Z,6.93
2018-12-25T06:28:52.066Z,7.40
2018-12-25T06:29:31.333Z,7.57
2018-12-25T06:30:10.680Z,6.70
2018-12-25T06:30:50.766Z,6.23
2018-12-25T06:31:29.437Z,6.30
2018-12-25T06:32:08.632Z,7.50
2018-12-25T06:32:47.884Z,7.00
2018-12-25T06:33:26.953Z,6.43
2018-12-25T06:34:05.734Z,6.30
2018-12-25T06:34:44.423Z,6.70
2018-12-25T06:35:23.777Z,6.93
2018-12-25T06:36:02.443Z,7.00
2018-12-25T06:36:41.638Z,7.50
2018-12-25T06:37:20.921Z,7.03
2018-12-25T06:38:00.369Z,7.13
2018-12-25T06:38:39.609Z,6.60
2018-12-25T06:39:18.830Z,7.43
2018-12-25T06:39:58.121Z,6.97
2018-12-25T06:40:37.282Z,6.90
2018-12-25T06:41:16.556Z,6.60
2018-12-25T06:41:55.268Z,6.70
2018-12-25T06:42:33.865Z,6.70
2018-12-25T06:43:12.791Z,7.17
2018-12-25T06:43:52.194Z,6.70
2018-12-25T06:44:31.386Z,6.73
2018-12-25T06:45:10.565Z,7.10
2018-12-25T06:45:49.902Z,6.40
2018-12-25T06:46:28.860Z,7.40
2018-12-25T06:47:07.528Z,6.43
2018-12-25T06:47:46.515Z,6.63
2018-12-25T06:48:25.233Z,7.00
2018-12-25T06:49:03.916Z,7.00
2018-12-25T06:49:43.040Z,6.40
2018-12-25T06:50:22.142Z,6.30
2018-12-25T06:51:03.906Z,6.50
2018-12-25T06:51:42.152Z,6.63
2018-12-25T06:52:21.090Z,7.70
2018-12-25T06:53:00.127Z,5.83
2018-12-25T06:53:41.208Z,6.00
2018-12-25T06:54:20.196Z,6.47
2018-12-25T06:54:58.906Z,6.93
2018-12-25T06:55:38.351Z,6.73
2018-12-25T06:56:17.408Z,6.40
2018-12-25T06:56:56.078Z,5.70
2018-12-25T06:57:34.902Z,5.30
2018-12-25T06:58:14.065Z,5.67
2018-12-25T06:58:53.039Z,6.40
2018-12-25T06:59:32.130Z,6.20
2018-12-25T07:00:11.439Z,6.10
2018-12-25T07:00:50.260Z,6.90
2018-12-25T07:01:29.542Z,6.00
2018-12-25T07:02:08.193Z,6.50
2018-12-25T07:02:46.953Z,10.00
2018-12-25T07:03:25.586Z,6.53
2018-12-25T07:04:04.253Z,6.23
2018-12-25T07:04:43.318Z,7.10
2018-12-25T07:05:22.393Z,6.00
2018-12-25T07:06:01.182Z,6.00
2018-12-25T07:06:42.265Z,6.70
2018-12-25T07:07:26.031Z,6.83
2018-12-25T07:08:05.069Z,6.83
2018-12-25T07:08:44.121Z,6.50
2018-12-25T07:09:22.986Z,6.37
2018-12-25T07:10:02.187Z,5.70
2018-12-25T07:10:40.771Z,9.30
2018-12-25T07:11:20.103Z,6.10
2018-12-25T07:11:59.059Z,6.83
2018-12-25T07:12:37.699Z,7.33
2018-12-25T07:13:16.339Z,5.33
2018-12-25T07:13:55.457Z,6.27
2018-12-25T07:14:34.175Z,6.57
2018-12-25T07:15:14.084Z,6.13
2018-12-25T07:15:53.909Z,6.67
2018-12-25T07:16:32.794Z,6.60
2018-12-25T07:17:12.224Z,5.90
2018-12-25T07:17:51.407Z,6.80
2018-12-25T07:18:30.194Z,6.17
2018-12-25T07:19:09.657Z,6.50
2018-12-25T07:19:48.412Z,6.20
2018-12-25T07:20:28.883Z,6.77
2018-12-25T07:21:12.127Z,5.93
2018-12-25T07:21:47.130Z,8.70
2018-12-25T07:22:25.927Z,6.10
2018-12-25T07:23:06.096Z,6.10
2018-12-25T07:23:44.895Z,5.17
2018-12-25T07:24:24.775Z,6.67
2018-12-25T07:25:04.038Z,6.30
2018-12-25T07:25:42.675Z,6.70
2018-12-25T07:26:22.227Z,5.90
2018-12-25T07:27:01.519Z,6.87
2018-12-25T07:27:40.200Z,6.00
2018-12-25T07:28:18.892Z,6.00
2018-12-25T07:28:58.114Z,6.23
2018-12-25T07:29:36.917Z,5.97
2018-12-25T07:30:15.630Z,8.83
2018-12-25T07:30:55.658Z,5.63
2018-12-25T07:31:34.725Z,5.90
2018-12-25T07:32:14.082Z,5.17
2018-12-25T07:32:53.216Z,6.07
2018-12-25T07:33:32.485Z,5.87
2018-12-25T07:34:11.632Z,7.03
2018-12-25T07:34:51.339Z,6.10
2018-12-25T07:35:33.426Z,6.03
2018-12-25T07:36:12.434Z,5.63
2018-12-25T07:36:52.138Z,6.90
2018-12-25T07:37:30.912Z,6.53
2018-12-25T07:38:09.544Z,5.60
2018-12-25T07:38:48.272Z,5.93
2018-12-25T07:39:27.182Z,5.20
2018-12-25T07:40:06.442Z,5.03
2018-12-25T07:40:45.790Z,6.50
2018-12-25T07:41:24.507Z,5.57
2018-12-25T07:42:04.153Z,5.20
2018-12-25T07:42:43.461Z,6.00
2018-12-25T07:43:22.878Z,15.40
2018-12-25T07:44:03.031Z,5.30
2018-12-25T07:44:42.477Z,5.73
2018-12-25T07:45:21.861Z,5.43
2018-12-25T07:46:00.582Z,5.13
2018-12-25T07:46:40.157Z,5.30
2018-12-25T07:47:19.030Z,5.50
2018-12-25T07:47:58.293Z,4.97
2018-12-25T07:48:39.481Z,4.67
2018-12-25T07:49:18.173Z,4.80
2018-12-25T07:49:57.204Z,5.37
2018-12-25T07:50:36.090Z,5.93
2018-12-25T07:51:20.912Z,5.90
2018-12-25T07:51:57.983Z,6.20
2018-12-25T07:52:37.181Z,4.50
2018-12-25T07:53:16.040Z,6.53
2018-12-25T07:53:55.673Z,5.37
2018-12-25T07:54:35.431Z,4.57
2018-12-25T07:55:14.764Z,4.70
2018-12-25T07:55:53.755Z,4.27
2018-12-25T07:56:32.941Z,4.80
2018-12-25T07:57:11.604Z,4.40
2018-12-25T07:57:53.067Z,5.27
2018-12-25T07:58:31.745Z,5.20
2018-12-25T07:59:13.630Z,4.80
2018-12-25T07:59:53.273Z,4.90
2018-12-25T08:00:32.614Z,4.57
2018-12-25T08:01:11.206Z,5.00
2018-12-25T08:01:50.018Z,5.40
2018-12-25T08:02:28.791Z,5.03
2018-12-25T08:03:07.459Z,4.67
2018-12-25T08:03:46.822Z,4.73
2018-12-25T08:04:26.011Z,4.63
2018-12-25T08:05:05.512Z,4.90
2018-12-25T08:05:44.945Z,5.17
2018-12-25T08:06:23.643Z,4.83
2018-12-25T08:07:02.324Z,4.60
2018-12-25T08:07:41.070Z,6.60
2018-12-25T08:08:20.519Z,5.17
2018-12-25T08:08:59.687Z,4.90
2018-12-25T08:09:38.757Z,4.37
2018-12-25T08:10:18.079Z,5.87
2018-12-25T08:10:57.355Z,5.23
2018-12-25T08:11:36.490Z,5.30
2018-12-25T08:12:16.053Z,4.87
2018-12-25T08:12:55.275Z,4.70
2018-12-25T08:13:33.866Z,5.43
2018-12-25T08:14:12.602Z,4.63
2018-12-25T08:14:51.323Z,4.57
2018-12-25T08:15:30.125Z,5.30
2018-12-25T08:16:09.068Z,5.23
2018-12-25T08:16:48.346Z,4.43
2018-12-25T08:17:27.042Z,5.23
2018-12-25T08:18:06.248Z,4.77
2018-12-25T08:18:45.010Z,5.70
2018-12-25T08:19:23.771Z,5.17
2018-12-25T08:20:02.658Z,5.80
2018-12-25T08:20:41.335Z,5.00
2018-12-25T08:21:20.524Z,5.97
2018-12-25T08:21:59.247Z,5.37
2018-12-25T08:22:38.012Z,4.20
2018-12-25T08:23:17.334Z,4.57
2018-12-25T08:23:56.062Z,5.47
2018-12-25T08:24:34.675Z,4.57
2018-12-25T08:25:13.948Z,5.80
2018-12-25T08:25:53.063Z,5.00
2018-12-25T08:26:31.895Z,5.63
2018-12-25T08:27:10.642Z,4.93
2018-12-25T08:27:49.797Z,5.10
2018-12-25T08:28:28.662Z,4.70
2018-12-25T08:29:07.849Z,5.40
2018-12-25T08:29:47.339Z,5.20
2018-12-25T08:30:26.737Z,4.90
2018-12-25T08:31:08.193Z,9.00
2018-12-25T08:31:46.486Z,5.73
2018-12-25T08:32:25.845Z,5.30
2018-12-25T08:33:04.681Z,4.97
2018-12-25T08:33:43.345Z,6.00
2018-12-25T08:34:22.596Z,4.80
2018-12-25T08:35:01.471Z,4.77
2018-12-25T08:35:40.451Z,4.93
2018-12-25T08:36:19.711Z,5.10
2018-12-25T08:36:59.564Z,6.70
2018-12-25T08:37:39.486Z,5.77
2018-12-25T08:38:18.848Z,6.23
2018-12-25T08:38:57.565Z,5.93
2018-12-25T08:39:36.965Z,5.80
2018-12-25T08:40:15.819Z,6.60
2018-12-25T08:40:54.646Z,5.33
2018-12-25T08:41:33.324Z,5.23
2018-12-25T08:42:12.299Z,5.30
2018-12-25T08:42:51.172Z,7.10
2018-12-25T08:43:30.404Z,5.47
2018-12-25T08:44:09.584Z,6.00
2018-12-25T08:44:48.360Z,5.30
2018-12-25T08:45:27.475Z,6.20
2018-12-25T08:46:06.567Z,6.37
2018-12-25T08:46:45.611Z,5.47
2018-12-25T08:47:24.983Z,6.20
2018-12-25T08:48:03.743Z,7.23
2018-12-25T08:48:42.880Z,6.03
2018-12-25T08:49:22.042Z,5.13
2018-12-25T08:50:01.081Z,5.60
2018-12-25T08:50:39.948Z,8.10
2018-12-25T08:51:19.087Z,5.30
2018-12-25T08:51:58.541Z,8.20
2018-12-25T08:52:37.833Z,6.10
2018-12-25T08:53:16.563Z,7.20
2018-12-25T08:53:55.406Z,6.17
2018-12-25T08:54:34.049Z,7.17
2018-12-25T08:55:13.484Z,6.13
2018-12-25T08:55:52.467Z,6.47
2018-12-25T08:56:36.738Z,5.60
2018-12-25T08:57:15.390Z,6.10
2018-12-25T08:57:54.973Z,7.37
2018-12-25T08:58:33.615Z,6.30
2018-12-25T08:59:12.731Z,6.37
2018-12-25T08:59:55.008Z,6.40
2018-12-25T09:00:34.084Z,6.53
2018-12-25T09:01:13.221Z,6.20
2018-12-25T09:01:52.325Z,7.97
2018-12-25T09:02:31.582Z,7.40
2018-12-25T09:03:11.025Z,6.27
2018-12-25T09:03:50.330Z,11.37
2018-12-25T09:04:28.937Z,7.03
2018-12-25T09:05:08.188Z,6.80
2018-12-25T09:05:46.966Z,6.60
2018-12-25T09:06:25.598Z,6.13
2018-12-25T09:07:04.576Z,6.87
2018-12-25T09:07:43.288Z,6.13
2018-12-25T09:08:22.923Z,6.27
2018-12-25T09:09:02.183Z,7.07
2018-12-25T09:09:41.260Z,6.60
2018-12-25T09:10:20.512Z,6.70
2018-12-25T09:10:59.231Z,6.60
2018-12-25T09:11:38.099Z,7.80
2018-12-25T09:12:20.067Z,6.70
2018-12-25T09:12:58.830Z,6.00
2018-12-25T09:13:38.088Z,7.87
2018-12-25T09:14:18.700Z,6.50
2018-12-25T09:14:57.414Z,6.73
2018-12-25T09:15:36.094Z,6.77
2018-12-25T09:16:14.963Z,6.50
2018-12-25T09:16:54.323Z,6.07
2018-12-25T09:17:35.115Z,6.40
2018-12-25T09:18:16.466Z,6.67
2018-12-25T09:18:55.317Z,6.47
2018-12-25T09:19:35.947Z,7.30
2018-12-25T09:20:14.974Z,6.45
2018-12-25T09:20:54.107Z,6.43
2018-12-25T09:21:33.458Z,7.37
2018-12-25T09:22:12.822Z,6.10
2018-12-25T09:22:52.079Z,7.67
2018-12-25T09:23:31.508Z,6.40
2018-12-25T09:24:10.178Z,7.70
2018-12-25T09:24:48.933Z,8.37
2018-12-25T09:25:27.639Z,6.97
2018-12-25T09:26:06.390Z,6.97
2018-12-25T09:26:45.577Z,6.10
2018-12-25T09:27:24.807Z,7.90
2018-12-25T09:28:04.286Z,7.63
2018-12-25T09:28:42.959Z,6.30
2018-12-25T09:29:22.228Z,6.13
2018-12-25T09:30:01.493Z,7.70
2018-12-25T09:30:40.969Z,6.93
2018-12-25T09:31:19.876Z,6.43
2018-12-25T09:32:01.817Z,7.80
2018-12-25T09:32:40.547Z,6.97
2018-12-25T09:33:19.836Z,9.07
2018-12-25T09:33:58.526Z,6.23
2018-12-25T09:34:37.252Z,7.30
2018-12-25T09:35:16.162Z,6.83
2018-12-25T09:35:55.393Z,8.70
2018-12-25T09:36:34.042Z,8.03
2018-12-25T09:37:12.648Z,7.00
2018-12-25T09:37:51.498Z,9.77
2018-12-25T09:38:31.954Z,7.43
2018-12-25T09:39:12.166Z,6.27
2018-12-25T09:39:50.822Z,6.20
2018-12-25T09:40:29.492Z,6.53
2018-12-25T09:41:08.159Z,7.10
2018-12-25T09:41:46.861Z,7.93
2018-12-25T09:42:25.543Z,6.70
2018-12-25T09:43:04.184Z,7.33
2018-12-25T09:43:42.898Z,8.03
2018-12-25T09:44:21.572Z,6.60
2018-12-25T09:45:00.286Z,10.60
2018-12-25T09:45:39.071Z,7.53
2018-12-25T09:46:17.813Z,7.33
2018-12-25T09:46:56.514Z,6.37
2018-12-25T09:47:35.195Z,7.50
2018-12-25T09:48:14.826Z,6.23
2018-12-25T09:48:56.174Z,7.90
2018-12-25T09:49:34.864Z,6.43
2018-12-25T09:50:13.623Z,6.23
2018-12-25T09:50:52.319Z,7.20
2018-12-25T09:51:31.146Z,6.70
2018-12-25T09:52:09.842Z,7.30
2018-12-25T09:52:48.523Z,6.43
2018-12-25T09:53:28.424Z,10.60
2018-12-25T09:54:07.083Z,6.37
2018-12-25T09:54:45.669Z,7.03
2018-12-25T09:55:24.365Z,7.20
2018-12-25T09:56:03.034Z,7.70
2018-12-25T09:56:41.831Z,6.90
2018-12-25T09:57:20.722Z,8.37
2018-12-25T09:57:59.494Z,6.50
2018-12-25T09:58:38.143Z,6.37
2018-12-25T09:59:17.294Z,8.20
2018-12-25T09:59:56.022Z,6.60
2018-12-25T10:00:34.778Z,10.63
2018-12-25T10:01:13.496Z,7.37
2018-12-25T10:01:52.299Z,6.17
2018-12-25T10:02:30.954Z,6.90
2018-12-25T10:03:09.775Z,6.40
2018-12-25T10:03:48.502Z,6.33
2018-12-25T10:04:27.246Z,6.60
2018-12-25T10:05:06.011Z,6.73
2018-12-25T10:05:44.743Z,6.50
2018-12-25T10:06:23.446Z,6.00
2018-12-25T10:07:02.071Z,6.80
2018-12-25T10:07:40.676Z,5.80
2018-12-25T10:08:19.438Z,6.17
2018-12-25T10:08:58.204Z,6.37
2018-12-25T10:09:36.884Z,6.97
2018-12-25T10:10:15.636Z,6.33
2018-12-25T10:10:54.461Z,6.40
2018-12-25T10:11:33.227Z,7.50
2018-12-25T10:12:11.917Z,6.00
2018-12-25T10:12:50.646Z,7.37
2018-12-25T10:13:29.476Z,6.40
2018-12-25T10:14:08.434Z,6.00
2018-12-25T10:14:47.054Z,6.30
2018-12-25T10:15:25.772Z,6.53
2018-12-25T10:16:04.396Z,6.43
2018-12-25T10:16:43.204Z,7.00
2018-12-25T10:17:22.120Z,7.10
2018-12-25T10:18:00.884Z,6.03